Country
Station

 

Weather  for  Forli  -  Italy    Italy

  
31 °C (88 °F)
    
 
 

Current METAR for Forli is :

LIPK 201550Z 25009KT CAVOK 31/08 Q1010

 

This is a report for Forli - Italy.
 
The report was made 5 hours and 32 minutes ago, at 15:50 UTC .
The wind was blowing at a speed of 4.6 meters per second (10.4 miles per hour) from west/southwest (250°).
 
The temperature was 31 °C (88 °F), with a dew-point at 8 °C (46 °F).
The temperature felt like 29 °C (85 °F).
 
The atmospheric pressure was 1010 hPa (29.83 inHg).
The relative humidity was 23.9%.
 
There were no clouds below 1500 meter (5000 feet) and no cumulonimbus clouds.
 
The overall visibility was greater than 10 kilometers (6.2 miles).
 

 
 
 
 

Country :   A   B   C   D   E   F   G   H   I   J   K   L   M   N   O   P   Q   R   S   T   U   V   W   Y   Z

 

Site Info  |  Disclaimer  |  Credits  |  Privacy
Contact us  |  Add to favorites
© 2013-2019 METARs - All rights reserved